Portada
METAR-TAF:

METAR-TAF

Aeroports :

Urgench, Uzbekistan

latitud: 41-35N, longitud: 060-38-42E, altitud: 98 m

Observació

L'informe es va fer fa 1 hora i 22 minuts, a les 22:00 UTC
Vent 2 kt del Nord-Est
Temperatura 1°C
Humitat 59%
Pressió 1013 hPa
Visibilitat 10 km o més
sense núvols per sota de 1500 mi sense presència de cumulonimbus.

METAR: UTNU 082200Z 05002KT CAVOK 01/M06 Q1013 R31/CLRD70 NOSIG

Hora: 04:22 (23:22 UTC)

Pronòstic

L'informe es va fer fa 6 hores i 19 minuts, a les 17:03 UTC
Pronòstic vàlid del 08 a les 18 UTC al 09 a les 18 UTC
Vent 10 kt del Est amb ràfegues de 20 kt
Visibilitat: 6000 m
Núvols disperses a una alçada de 4000 ft
Cel ennuvolat a una alçada de 10000 ft
Temporalment
l' 08 a les 18 UTC al 08 a les 24 UTC
Vent 8 kt del Nord-Est
Visibilitat: 3000 m
Cel ennuvolat a una alçada de 3000 ft, Cumulonimbus.
xàfecs de pluja, boirina

TAF: UTNU 081703Z 0818/0918 08010G20KT 6000 SCT040 BKN100 TEMPO 0818/0824 04008KT 3000 -SHRA BR BKN030CB

Observacions i pronòstics meteorològics de més de 4000 aeroports (METAR i TAF).

Les estacions disponibles són els punts grocs i vermells al mapa.

Posi el ratolí al punt desitjat per veure el nom de l'estació.

Feu clic per veure les observacions i els pronòstics meteorològics.

Per canviar el mapa: feu clic els botons verds amb una creu de color negre per apropar; al botó verd amb un guió per allunyar la imatge; o en les fletxes verdes per a mapes adjacents.


METAR-TAF: